createdAt,value
2023-05-15T00:01:24.799Z,11.47
2023-05-15T00:04:12.435Z,11.24
2023-05-15T00:06:57.849Z,11.37
2023-05-15T00:09:42.845Z,11.40
2023-05-15T00:12:28.473Z,11.20
2023-05-15T00:15:13.546Z,11.32
2023-05-15T00:17:58.403Z,11.23
2023-05-15T00:20:43.735Z,11.26
2023-05-15T00:23:28.628Z,11.32
2023-05-15T00:26:13.581Z,11.36
2023-05-15T00:28:58.438Z,11.41
2023-05-15T00:31:43.272Z,11.62
2023-05-15T00:34:28.460Z,11.58
2023-05-15T00:37:14.143Z,11.50
2023-05-15T00:39:59.387Z,11.25
2023-05-15T00:42:46.207Z,11.31
2023-05-15T00:45:32.105Z,11.13
2023-05-15T00:48:17.320Z,10.96
2023-05-15T00:51:02.303Z,11.07
2023-05-15T00:53:47.881Z,11.17
2023-05-15T00:56:34.778Z,11.24
2023-05-15T00:59:22.112Z,11.24
2023-05-15T01:02:07.577Z,11.27
2023-05-15T01:04:52.712Z,11.09
2023-05-15T01:07:52.177Z,10.70
2023-05-15T01:10:37.641Z,10.62
2023-05-15T01:13:23.271Z,10.72
2023-05-15T01:16:09.573Z,10.62
2023-05-15T01:18:54.879Z,10.51
2023-05-15T01:21:58.922Z,10.52
2023-05-15T01:24:52.958Z,10.55
2023-05-15T01:28:09.653Z,10.44
2023-05-15T01:30:55.976Z,10.22
2023-05-15T01:33:45.039Z,10.28
2023-05-15T01:36:35.021Z,10.04
2023-05-15T01:39:21.420Z,10.15
2023-05-15T01:42:09.805Z,10.23
2023-05-15T01:44:55.487Z,10.13
2023-05-15T01:47:47.106Z,10.07
2023-05-15T01:50:34.781Z,10.03
2023-05-15T01:53:20.219Z,10.25
2023-05-15T01:56:07.265Z,10.20
2023-05-15T01:58:53.494Z,10.17
2023-05-15T02:01:41.417Z,10.21
2023-05-15T02:04:27.831Z,9.92
2023-05-15T02:07:14.598Z,9.94
2023-05-15T02:10:01.713Z,10.12
2023-05-15T02:12:47.562Z,10.09
2023-05-15T02:15:33.304Z,9.78
2023-05-15T02:18:18.456Z,9.75
2023-05-15T02:21:03.971Z,9.81
2023-05-15T02:23:49.198Z,9.85
2023-05-15T02:26:58.986Z,10.00
2023-05-15T02:30:09.701Z,9.84
2023-05-15T02:33:23.530Z,10.04
2023-05-15T02:36:11.265Z,10.10
2023-05-15T02:38:58.681Z,10.01
2023-05-15T02:41:46.337Z,9.98
2023-05-15T02:44:32.764Z,10.07
2023-05-15T02:47:19.477Z,10.21
2023-05-15T02:50:05.646Z,10.13
2023-05-15T02:52:50.694Z,9.93
2023-05-15T02:55:36.676Z,9.92
2023-05-15T02:58:21.975Z,9.89
2023-05-15T03:01:07.285Z,9.81
2023-05-15T03:03:52.592Z,9.82
2023-05-15T03:06:38.011Z,9.86
2023-05-15T03:09:23.158Z,9.62
2023-05-15T03:12:08.637Z,9.60
2023-05-15T03:14:53.894Z,9.49
2023-05-15T03:17:39.411Z,9.43
2023-05-15T03:20:25.361Z,9.46
2023-05-15T03:23:10.530Z,9.38
2023-05-15T03:25:55.840Z,9.49
2023-05-15T03:28:42.195Z,9.55
2023-05-15T03:31:27.550Z,9.62
2023-05-15T03:34:13.306Z,9.20
2023-05-15T03:36:58.280Z,9.30
2023-05-15T03:39:43.405Z,9.44
2023-05-15T03:42:28.614Z,9.52
2023-05-15T03:45:13.628Z,9.26
2023-05-15T03:47:58.748Z,9.14
2023-05-15T03:50:45.526Z,9.35
2023-05-15T03:53:30.805Z,9.39
2023-05-15T03:56:16.159Z,9.37
2023-05-15T03:59:01.108Z,9.58
2023-05-15T04:02:02.834Z,9.57
2023-05-15T04:04:49.472Z,9.36
2023-05-15T04:07:36.559Z,9.18
2023-05-15T04:10:21.706Z,9.19
2023-05-15T04:13:06.595Z,9.35
2023-05-15T04:15:52.193Z,9.53
2023-05-15T04:18:37.470Z,9.65
2023-05-15T04:21:22.991Z,9.60
2023-05-15T04:24:08.293Z,9.49
2023-05-15T04:26:53.631Z,9.51
2023-05-15T04:29:39.171Z,9.50
2023-05-15T04:32:24.626Z,9.48
2023-05-15T04:35:10.793Z,9.53
2023-05-15T04:37:56.102Z,9.66
2023-05-15T04:40:41.643Z,9.88
2023-05-15T04:43:26.854Z,9.96
2023-05-15T04:46:11.737Z,9.93
2023-05-15T04:48:57.118Z,10.00
2023-05-15T04:51:42.397Z,10.16
2023-05-15T04:54:27.307Z,10.20
2023-05-15T04:57:12.683Z,10.02
2023-05-15T04:59:57.542Z,10.15
2023-05-15T05:02:43.016Z,10.35
2023-05-15T05:05:28.323Z,10.27
2023-05-15T05:08:13.359Z,10.44
2023-05-15T05:10:58.647Z,10.62
2023-05-15T05:13:44.298Z,10.77
2023-05-15T05:16:29.519Z,10.84
2023-05-15T05:19:15.023Z,10.91
2023-05-15T05:22:00.496Z,10.92
2023-05-15T05:24:45.828Z,10.77
2023-05-15T05:27:31.220Z,10.67
2023-05-15T05:30:16.057Z,10.72
2023-05-15T05:33:01.044Z,10.91
2023-05-15T05:35:46.379Z,10.87
2023-05-15T05:38:32.612Z,10.96
2023-05-15T05:41:17.815Z,10.98
2023-05-15T05:44:03.215Z,11.09
2023-05-15T05:46:49.273Z,11.18
2023-05-15T05:49:34.457Z,11.32
2023-05-15T05:52:19.468Z,11.30
2023-05-15T05:55:05.321Z,11.30
2023-05-15T05:57:50.657Z,11.36
2023-05-15T06:00:36.183Z,11.49
2023-05-15T06:03:21.584Z,11.75
2023-05-15T06:06:07.127Z,11.91
2023-05-15T06:08:54.844Z,12.04
2023-05-15T06:11:41.528Z,12.23
2023-05-15T06:14:26.550Z,12.31
2023-05-15T06:17:12.332Z,12.32
2023-05-15T06:19:57.583Z,12.62
2023-05-15T06:22:42.548Z,12.85
2023-05-15T06:25:27.914Z,12.80
2023-05-15T06:28:13.232Z,12.83
2023-05-15T06:30:58.561Z,13.24
2023-05-15T06:33:43.979Z,13.34
2023-05-15T06:36:28.935Z,13.64
2023-05-15T06:39:13.848Z,13.58
2023-05-15T06:41:59.387Z,13.24
2023-05-15T06:44:44.889Z,13.43
2023-05-15T06:47:30.430Z,13.78
2023-05-15T06:50:15.770Z,13.65
2023-05-15T06:53:00.841Z,13.99
2023-05-15T06:55:46.610Z,14.28
2023-05-15T06:58:31.976Z,14.22
2023-05-15T07:01:17.194Z,13.68
2023-05-15T07:04:02.529Z,13.90
2023-05-15T07:06:47.742Z,13.63
2023-05-15T07:09:32.740Z,13.44
2023-05-15T07:12:17.704Z,13.67
2023-05-15T07:15:03.538Z,13.90
2023-05-15T07:17:48.913Z,14.27
2023-05-15T07:20:35.171Z,14.15
2023-05-15T07:23:20.876Z,14.30
2023-05-15T07:26:07.385Z,14.56
2023-05-15T07:28:54.160Z,14.44
2023-05-15T07:31:39.355Z,14.55
2023-05-15T07:34:24.512Z,14.94
2023-05-15T07:37:09.762Z,15.30
2023-05-15T07:39:54.623Z,15.41
2023-05-15T07:42:39.972Z,15.66
2023-05-15T07:45:25.520Z,15.68
2023-05-15T07:48:15.176Z,15.31
2023-05-15T07:51:00.736Z,15.52
2023-05-15T07:53:45.915Z,15.85
2023-05-15T07:56:31.436Z,15.86
2023-05-15T07:59:16.589Z,16.33
2023-05-15T08:02:02.070Z,16.87
2023-05-15T08:04:47.240Z,17.37
2023-05-15T08:07:32.599Z,17.68
2023-05-15T08:10:17.792Z,17.55
2023-05-15T08:13:03.153Z,16.66
2023-05-15T08:15:48.341Z,17.29
2023-05-15T08:18:33.767Z,17.57
2023-05-15T08:21:19.140Z,17.59
2023-05-15T08:24:05.061Z,17.48
2023-05-15T08:26:50.133Z,17.37
2023-05-15T08:29:39.232Z,16.96
2023-05-15T08:32:24.911Z,17.29
2023-05-15T08:35:10.347Z,17.07
2023-05-15T08:37:55.710Z,16.72
2023-05-15T08:40:45.929Z,16.01
2023-05-15T08:43:33.215Z,15.87
2023-05-15T08:46:18.578Z,16.20
2023-05-15T08:49:29.834Z,16.78
2023-05-15T08:52:15.373Z,16.98
2023-05-15T08:55:01.510Z,17.24
2023-05-15T08:57:48.487Z,17.43
2023-05-15T09:00:34.052Z,16.78
2023-05-15T09:03:19.270Z,17.31
2023-05-15T09:06:05.953Z,18.24
2023-05-15T09:08:54.948Z,18.60
2023-05-15T09:11:45.104Z,18.62
2023-05-15T09:14:30.321Z,18.93
2023-05-15T09:17:15.638Z,19.00
2023-05-15T09:20:02.199Z,18.75
2023-05-15T09:22:47.627Z,18.22
2023-05-15T09:25:33.158Z,18.89
2023-05-15T09:28:29.655Z,19.54
2023-05-15T09:31:18.700Z,20.02
2023-05-15T09:34:04.161Z,19.70
2023-05-15T09:36:49.586Z,18.58
2023-05-15T09:39:41.645Z,19.42
2023-05-15T09:42:27.056Z,19.21
2023-05-15T09:45:17.732Z,18.67
2023-05-15T09:48:07.090Z,19.42
2023-05-15T09:50:52.264Z,19.47
2023-05-15T09:53:37.282Z,19.78
2023-05-15T09:56:22.244Z,20.07
2023-05-15T09:59:13.569Z,20.10
2023-05-15T10:01:58.825Z,20.36
2023-05-15T10:04:44.312Z,20.50
2023-05-15T10:07:30.697Z,20.41
2023-05-15T10:10:16.252Z,19.97
2023-05-15T10:13:01.595Z,18.59
2023-05-15T10:15:47.219Z,19.22
2023-05-15T10:18:35.697Z,19.56
2023-05-15T10:21:21.976Z,20.01
2023-05-15T10:24:08.591Z,19.56
2023-05-15T10:26:55.052Z,18.87
2023-05-15T10:29:40.789Z,18.01
2023-05-15T10:32:26.005Z,18.02
2023-05-15T10:35:11.736Z,18.25
2023-05-15T10:37:57.755Z,19.18
2023-05-15T10:40:44.679Z,18.50
2023-05-15T10:43:30.799Z,17.75
2023-05-15T10:46:16.878Z,18.65
2023-05-15T10:49:05.402Z,19.23
2023-05-15T10:51:52.796Z,19.40
2023-05-15T10:54:37.775Z,19.30
2023-05-15T10:57:23.554Z,20.13
2023-05-15T11:00:24.039Z,20.33
2023-05-15T11:03:16.692Z,20.77
2023-05-15T11:06:12.558Z,20.30
2023-05-15T11:09:24.222Z,20.68
2023-05-15T11:12:11.294Z,20.75
2023-05-15T11:14:56.523Z,20.78
2023-05-15T11:18:02.384Z,20.89
2023-05-15T11:20:50.502Z,20.96
2023-05-15T11:23:40.568Z,19.72
2023-05-15T11:26:34.647Z,19.71
2023-05-15T11:29:20.076Z,20.55
2023-05-15T11:32:41.531Z,20.82
2023-05-15T11:35:33.204Z,20.03
2023-05-15T11:38:22.502Z,20.00
2023-05-15T11:41:20.764Z,20.62
2023-05-15T11:44:06.070Z,19.86
2023-05-15T11:46:51.652Z,19.91
2023-05-15T11:49:38.260Z,20.11
2023-05-15T11:52:24.471Z,20.45
2023-05-15T11:55:10.675Z,20.43
2023-05-15T11:57:56.089Z,21.10
2023-05-15T12:00:45.906Z,21.74
2023-05-15T12:03:34.712Z,22.14
2023-05-15T12:06:20.408Z,21.75
2023-05-15T12:09:05.797Z,21.98
2023-05-15T12:11:52.702Z,21.96
2023-05-15T12:14:39.167Z,21.14
2023-05-15T12:17:24.847Z,21.38
2023-05-15T12:20:19.255Z,21.12
2023-05-15T12:23:05.762Z,20.84
2023-05-15T12:25:53.392Z,21.16
2023-05-15T12:28:38.800Z,21.86
2023-05-15T12:31:24.396Z,21.03
2023-05-15T12:34:10.419Z,21.96
2023-05-15T12:36:56.002Z,22.66
2023-05-15T12:40:00.750Z,21.07
2023-05-15T12:42:45.877Z,20.95
2023-05-15T12:45:31.398Z,21.02
2023-05-15T12:48:16.854Z,21.43
2023-05-15T12:51:06.800Z,22.03
2023-05-15T12:53:55.020Z,21.44
2023-05-15T12:56:40.575Z,21.51
2023-05-15T12:59:26.027Z,21.52
2023-05-15T13:02:12.543Z,21.98
2023-05-15T13:04:57.927Z,22.62
2023-05-15T13:07:44.069Z,22.65
2023-05-15T13:10:32.566Z,22.76
2023-05-15T13:13:17.954Z,22.63
2023-05-15T13:16:03.606Z,22.94
2023-05-15T13:18:49.238Z,22.65
2023-05-15T13:21:34.811Z,22.50
2023-05-15T13:24:23.351Z,22.46
2023-05-15T13:27:08.527Z,22.33
2023-05-15T13:29:53.353Z,21.69
2023-05-15T13:32:38.685Z,21.71
2023-05-15T13:35:24.029Z,21.38
2023-05-15T13:38:11.497Z,21.05
2023-05-15T13:40:57.207Z,20.90
2023-05-15T13:43:42.591Z,20.85
2023-05-15T13:46:27.903Z,21.14
2023-05-15T13:49:13.166Z,21.39
2023-05-15T13:51:58.755Z,21.32
2023-05-15T13:54:44.050Z,21.07
2023-05-15T13:57:29.321Z,21.15
2023-05-15T14:00:15.305Z,21.30
2023-05-15T14:03:00.758Z,21.25
2023-05-15T14:05:46.221Z,21.24
2023-05-15T14:08:31.153Z,20.95
2023-05-15T14:11:15.976Z,20.70
2023-05-15T14:14:00.933Z,20.77
2023-05-15T14:16:45.940Z,20.67
2023-05-15T14:19:31.206Z,20.83
2023-05-15T14:22:17.425Z,20.74
2023-05-15T14:25:03.899Z,20.62
2023-05-15T14:27:50.165Z,20.57
2023-05-15T14:30:35.409Z,20.56
2023-05-15T14:33:21.090Z,20.70
2023-05-15T14:36:07.054Z,20.85
2023-05-15T14:38:52.252Z,20.95
2023-05-15T14:41:37.177Z,20.93
2023-05-15T14:44:22.515Z,21.07
2023-05-15T14:47:12.209Z,20.89
2023-05-15T14:49:57.589Z,20.97
2023-05-15T14:52:43.040Z,20.90
2023-05-15T14:55:28.084Z,21.02
2023-05-15T14:58:13.063Z,20.63
2023-05-15T15:00:58.588Z,20.49
2023-05-15T15:03:43.934Z,20.66
2023-05-15T15:06:29.210Z,20.72
2023-05-15T15:09:14.727Z,20.65
2023-05-15T15:11:59.835Z,20.54
2023-05-15T15:14:44.599Z,20.41
2023-05-15T15:17:29.831Z,20.42
2023-05-15T15:20:17.490Z,20.65
2023-05-15T15:23:03.473Z,20.81
2023-05-15T15:25:48.540Z,20.82
2023-05-15T15:28:33.391Z,20.60
2023-05-15T15:31:18.348Z,20.77
2023-05-15T15:34:05.294Z,20.62
2023-05-15T15:36:51.100Z,20.70
2023-05-15T15:39:35.975Z,20.71
2023-05-15T15:42:21.397Z,20.72
2023-05-15T15:45:07.338Z,20.65
2023-05-15T15:47:52.650Z,20.79
2023-05-15T15:50:38.037Z,20.91
2023-05-15T15:53:23.588Z,21.00
2023-05-15T15:56:08.716Z,21.15
2023-05-15T15:58:53.475Z,21.23
2023-05-15T16:01:38.821Z,21.62
2023-05-15T16:04:24.194Z,21.88
2023-05-15T16:07:09.152Z,21.95
2023-05-15T16:10:10.668Z,21.78
2023-05-15T16:12:57.267Z,21.71
2023-05-15T16:15:42.334Z,21.56
2023-05-15T16:18:27.516Z,21.41
2023-05-15T16:21:13.176Z,21.25
2023-05-15T16:23:58.493Z,20.92
2023-05-15T16:26:43.674Z,20.83
2023-05-15T16:29:30.078Z,20.54
2023-05-15T16:32:15.228Z,20.44
2023-05-15T16:35:00.186Z,20.28
2023-05-15T16:37:45.770Z,20.30
2023-05-15T16:40:30.538Z,20.14
2023-05-15T16:43:15.821Z,20.11
2023-05-15T16:46:00.826Z,20.11
2023-05-15T16:48:46.466Z,20.11
2023-05-15T16:51:33.289Z,20.09
2023-05-15T16:54:19.044Z,20.14
2023-05-15T16:57:05.044Z,20.00
2023-05-15T16:59:53.289Z,20.04
2023-05-15T17:02:39.123Z,20.00
2023-05-15T17:05:24.365Z,19.90
2023-05-15T17:08:09.103Z,19.91
2023-05-15T17:10:53.969Z,19.93
2023-05-15T17:13:39.450Z,19.95
2023-05-15T17:16:24.685Z,19.92
2023-05-15T17:19:10.169Z,19.68
2023-05-15T17:21:55.294Z,19.79
2023-05-15T17:24:50.692Z,19.69
2023-05-15T17:27:36.292Z,19.64
2023-05-15T17:30:22.110Z,19.65
2023-05-15T17:33:07.181Z,19.47
2023-05-15T17:35:52.184Z,19.32
2023-05-15T17:38:37.075Z,19.22
2023-05-15T17:41:22.119Z,19.21
2023-05-15T17:44:07.429Z,19.19
2023-05-15T17:46:52.329Z,19.22
2023-05-15T17:49:38.307Z,19.14
2023-05-15T17:52:23.508Z,18.99
2023-05-15T17:55:08.870Z,18.91
2023-05-15T17:57:53.873Z,18.93
2023-05-15T18:00:38.813Z,18.93
2023-05-15T18:03:23.864Z,18.71
2023-05-15T18:06:09.134Z,18.81
2023-05-15T18:08:54.103Z,18.72
2023-05-15T18:11:39.206Z,18.74
2023-05-15T18:14:24.767Z,18.55
2023-05-15T18:17:10.339Z,18.38
2023-05-15T18:19:55.699Z,18.36
2023-05-15T18:22:40.696Z,18.28
2023-05-15T18:25:25.603Z,18.02
2023-05-15T18:28:10.953Z,17.62
2023-05-15T18:30:56.030Z,17.50
2023-05-15T18:33:40.932Z,17.33
2023-05-15T18:36:26.162Z,17.17
2023-05-15T18:39:11.185Z,17.14
2023-05-15T18:41:56.030Z,17.02
2023-05-15T18:44:41.470Z,16.76
2023-05-15T18:47:26.819Z,16.63
2023-05-15T18:50:12.171Z,16.59
2023-05-15T18:52:57.267Z,16.52
2023-05-15T18:55:42.429Z,16.38
2023-05-15T18:58:27.834Z,16.18
2023-05-15T19:01:13.514Z,16.01
2023-05-15T19:03:58.684Z,15.80
2023-05-15T19:06:43.834Z,15.67
2023-05-15T19:09:28.875Z,15.63
2023-05-15T19:12:13.789Z,15.52
2023-05-15T19:14:58.660Z,15.39
2023-05-15T19:17:43.944Z,15.41
2023-05-15T19:20:29.097Z,15.36
2023-05-15T19:23:14.351Z,15.23
2023-05-15T19:25:59.244Z,15.31
2023-05-15T19:28:44.239Z,15.27
2023-05-15T19:31:31.999Z,15.17
2023-05-15T19:34:17.654Z,15.22
2023-05-15T19:37:02.496Z,15.01
2023-05-15T19:39:48.102Z,15.03
2023-05-15T19:42:33.300Z,15.01
2023-05-15T19:45:18.359Z,14.99
2023-05-15T19:48:03.644Z,15.01
2023-05-15T19:50:48.944Z,14.96
2023-05-15T19:53:34.242Z,14.87
2023-05-15T19:56:22.911Z,14.80
2023-05-15T19:59:08.420Z,14.77
2023-05-15T20:01:53.910Z,14.79
2023-05-15T20:04:39.127Z,14.71
2023-05-15T20:07:24.106Z,14.62
2023-05-15T20:10:09.656Z,14.56
2023-05-15T20:12:54.892Z,14.54
2023-05-15T20:15:39.805Z,14.52
2023-05-15T20:18:26.840Z,14.42
2023-05-15T20:21:11.690Z,14.37
2023-05-15T20:23:56.363Z,14.27
2023-05-15T20:26:41.814Z,14.11
2023-05-15T20:29:26.811Z,14.01
2023-05-15T20:32:11.690Z,13.95
2023-05-15T20:34:57.263Z,13.88
2023-05-15T20:37:42.571Z,13.79
2023-05-15T20:40:27.850Z,13.81
2023-05-15T20:43:13.110Z,13.77
2023-05-15T20:45:57.990Z,13.67
2023-05-15T20:48:43.292Z,13.60
2023-05-15T20:51:28.768Z,13.63
2023-05-15T20:54:16.654Z,13.66
2023-05-15T20:57:01.475Z,13.61
2023-05-15T20:59:46.479Z,13.61
2023-05-15T21:02:31.542Z,13.66
2023-05-15T21:05:16.901Z,13.68
2023-05-15T21:08:02.312Z,13.62
2023-05-15T21:10:47.568Z,13.65
2023-05-15T21:13:32.313Z,13.51
2023-05-15T21:16:17.258Z,13.40
2023-05-15T21:19:02.323Z,13.26
2023-05-15T21:21:47.588Z,13.25
2023-05-15T21:24:32.583Z,13.27
2023-05-15T21:27:17.385Z,13.14
2023-05-15T21:30:03.000Z,13.06
2023-05-15T21:32:48.234Z,12.94
2023-05-15T21:35:33.203Z,12.88
2023-05-15T21:38:18.391Z,12.80
2023-05-15T21:41:03.176Z,12.86
2023-05-15T21:43:47.956Z,12.79
2023-05-15T21:46:33.362Z,12.88
2023-05-15T21:49:18.747Z,12.89
2023-05-15T21:52:04.511Z,12.86
2023-05-15T21:54:49.504Z,12.84
2023-05-15T21:57:34.438Z,12.89
2023-05-15T22:00:19.837Z,12.79
2023-05-15T22:03:05.494Z,12.76
2023-05-15T22:05:50.903Z,12.74
2023-05-15T22:08:36.281Z,12.81
2023-05-15T22:11:21.641Z,12.82
2023-05-15T22:14:06.361Z,12.90
2023-05-15T22:16:52.954Z,12.98
2023-05-15T22:19:38.255Z,12.76
2023-05-15T22:22:23.815Z,12.86
2023-05-15T22:25:09.074Z,12.83
2023-05-15T22:27:54.154Z,12.85
2023-05-15T22:30:39.709Z,12.79
2023-05-15T22:33:24.671Z,12.55
2023-05-15T22:36:09.576Z,12.27
2023-05-15T22:38:54.981Z,12.26
2023-05-15T22:41:39.822Z,12.34
2023-05-15T22:44:24.983Z,12.43
2023-05-15T22:47:10.014Z,12.51
2023-05-15T22:49:55.459Z,12.44
2023-05-15T22:52:40.804Z,12.29
2023-05-15T22:55:26.443Z,12.11
2023-05-15T22:58:11.797Z,12.05
2023-05-15T23:00:57.211Z,12.13
2023-05-15T23:03:42.659Z,12.16
2023-05-15T23:06:27.819Z,12.18
2023-05-15T23:09:13.110Z,12.23
2023-05-15T23:11:58.042Z,12.11
2023-05-15T23:14:43.351Z,12.10
2023-05-15T23:17:29.087Z,12.05
2023-05-15T23:20:14.432Z,12.10
2023-05-15T23:22:59.716Z,11.79
2023-05-15T23:25:45.295Z,11.81
2023-05-15T23:28:30.394Z,11.91
2023-05-15T23:31:15.891Z,11.60
2023-05-15T23:34:01.112Z,11.53
2023-05-15T23:36:46.290Z,11.52
2023-05-15T23:39:31.205Z,11.66
2023-05-15T23:42:16.491Z,11.63
2023-05-15T23:45:03.332Z,11.58
2023-05-15T23:47:48.172Z,11.30
2023-05-15T23:50:33.648Z,11.10
2023-05-15T23:53:19.003Z,11.28
2023-05-15T23:56:04.693Z,11.37
2023-05-15T23:58:50.104Z,11.48
